Time;durP1;ratioP1;P1;durP2;ratioP2;P2;SDS_P1;SDS_P2;PMS_P1;PMS_P2;Temp;Humidity;BMP_temperature;BMP_pressure;BME280_temperature;BME280_humidity;BME280_pressure;Samples;Min_cycle;Max_cycle;Signal;HPM_P1;HPM_P2
2023/01/13 00:01:08;;;;;;;6.85;1.90;;;9.70;99.90;;;;;;5034672;28;20063;-67
2023/01/13 00:03:34;;;;;;;19.58;3.35;;;9.70;99.90;;;;;;5030642;28;20506;-68
2023/01/13 00:06:00;;;;;;;11.55;2.35;;;9.70;99.90;;;;;;5029556;28;20056;-67
2023/01/13 00:08:25;;;;;;;17.90;2.72;;;9.70;99.90;;;;;;5031558;28;20482;-68
2023/01/13 00:10:51;;;;;;;23.25;3.67;;;9.60;99.90;;;;;;5031544;28;20037;-68
2023/01/13 00:13:25;;;;;;;17.48;3.17;;;9.60;99.90;;;;;;5031188;28;20480;-68
2023/01/13 00:16:05;;;;;;;24.25;3.50;;;9.60;99.90;;;;;;5030917;28;20387;-68
2023/01/13 00:18:32;;;;;;;15.18;3.20;;;9.50;99.90;;;;;;5031539;28;20067;-68
2023/01/13 00:21:03;;;;;;;15.57;3.60;;;9.50;99.90;;;;;;5045756;28;20044;-66
2023/01/13 00:23:31;;;;;;;12.88;3.60;;;9.40;99.90;;;;;;5051160;28;20041;-67
2023/01/13 00:26:03;;;;;;;23.77;3.25;;;9.40;99.90;;;;;;5050628;28;20045;-68
2023/01/13 00:28:28;;;;;;;26.92;3.47;;;9.40;99.90;;;;;;5051604;28;20044;-67
2023/01/13 00:30:57;;;;;;;20.52;3.35;;;9.30;99.90;;;;;;5049582;28;20052;-68
2023/01/13 00:33:23;;;;;;;15.68;3.10;;;9.30;99.90;;;;;;5051308;28;20037;-68
2023/01/13 00:35:56;;;;;;;15.32;2.75;;;9.30;99.90;;;;;;5050497;28;20048;-67
2023/01/13 00:38:22;;;;;;;23.98;3.40;;;9.30;99.90;;;;;;5050919;28;20037;-67
2023/01/13 00:40:58;;;;;;;16.42;2.75;;;9.30;99.90;;;;;;5051202;28;20064;-68
2023/01/13 00:43:25;;;;;;;15.85;3.17;;;9.30;99.90;;;;;;5051062;28;20045;-67
2023/01/13 00:45:51;;;;;;;27.75;3.88;;;9.20;99.90;;;;;;5050373;28;20398;-68
2023/01/13 00:48:18;;;;;;;15.50;3.53;;;9.20;99.90;;;;;;5050896;28;20398;-67
2023/01/13 00:50:44;;;;;;;24.38;3.25;;;9.20;99.90;;;;;;5050869;28;20037;-67
2023/01/13 00:53:11;;;;;;;20.25;3.25;;;9.20;99.90;;;;;;5051047;28;20033;-67
2023/01/13 00:55:36;;;;;;;15.05;3.00;;;9.10;99.90;;;;;;5050106;28;20060;-67
2023/01/13 00:58:02;;;;;;;21.92;3.03;;;9.10;99.90;;;;;;5050935;28;20080;-68
2023/01/13 01:00:34;;;;;;;18.23;2.85;;;9.10;99.90;;;;;;5050882;28;20103;-67
2023/01/13 01:03:00;;;;;;;15.73;3.22;;;9.10;99.90;;;;;;5050778;28;20033;-68
2023/01/13 01:05:26;;;;;;;22.80;5.88;;;9.10;99.90;;;;;;5049950;28;20425;-68
2023/01/13 01:07:51;;;;;;;18.30;2.83;;;9.10;99.90;;;;;;5050922;28;20033;-68
2023/01/13 01:10:17;;;;;;;12.45;2.72;;;9.10;99.90;;;;;;5050763;28;20067;-67
2023/01/13 01:12:42;;;;;;;22.52;3.55;;;9.00;99.90;;;;;;5050746;28;20052;-67
2023/01/13 01:15:09;;;;;;;11.63;2.78;;;9.10;99.90;;;;;;5050038;28;20041;-68
2023/01/13 01:17:37;;;;;;;16.08;3.03;;;9.10;99.90;;;;;;5050693;28;20045;-67
2023/01/13 01:20:03;;;;;;;21.80;2.92;;;9.00;99.90;;;;;;5050496;28;20512;-68
2023/01/13 01:22:29;;;;;;;14.00;3.25;;;9.00;99.90;;;;;;5050975;28;20045;-68
2023/01/13 01:24:55;;;;;;;19.35;3.10;;;9.00;99.90;;;;;;5049813;28;20052;-67
2023/01/13 01:27:20;;;;;;;14.32;2.90;;;9.00;99.90;;;;;;5050684;28;20501;-67
2023/01/13 01:29:46;;;;;;;16.45;3.95;;;9.00;99.90;;;;;;5050627;28;20401;-67
2023/01/13 01:32:12;;;;;;;21.80;2.95;;;9.00;99.90;;;;;;5050480;28;20029;-68
2023/01/13 01:34:38;;;;;;;23.00;3.55;;;9.00;99.90;;;;;;5048344;28;20049;-68
2023/01/13 01:37:04;;;;;;;17.90;3.67;;;9.00;99.90;;;;;;5050650;28;20186;-68
2023/01/13 01:39:29;;;;;;;11.93;2.85;;;9.00;99.90;;;;;;5050525;28;20048;-68
2023/01/13 01:44:42;;;;;;;21.50;3.30;;;9.00;99.90;;;;;;5053305;28;20037;-68
2023/01/13 01:47:14;;;;;;;27.00;3.53;;;9.00;99.90;;;;;;5054072;28;20048;-67
2023/01/13 01:49:41;;;;;;;20.70;3.70;;;9.00;99.90;;;;;;5054420;28;20051;-67
2023/01/13 01:52:20;;;;;;;25.08;3.30;;;9.00;99.90;;;;;;5053971;28;20615;-67
2023/01/13 01:54:49;;;;;;;14.07;3.17;;;8.90;99.90;;;;;;5053464;28;20051;-68
2023/01/13 01:57:22;;;;;;;14.43;2.83;;;8.90;99.90;;;;;;5053883;28;20124;-67
2023/01/13 01:59:48;;;;;;;27.75;3.60;;;8.90;99.90;;;;;;5053894;28;20060;-67
2023/01/13 02:02:14;;;;;;;20.83;4.28;;;8.90;99.90;;;;;;5054096;28;20052;-68
2023/01/13 02:04:49;;;;;;;17.88;2.85;;;8.90;99.90;;;;;;5052913;28;20040;-67
2023/01/13 02:07:17;;;;;;;25.52;3.88;;;8.90;99.90;;;;;;5054119;28;20072;-68
2023/01/13 02:09:43;;;;;;;16.15;3.45;;;8.90;99.90;;;;;;5053677;28;20511;-67
2023/01/13 02:14:54;;;;;;;26.13;3.53;;;8.80;99.90;;;;;;5053108;28;20057;-67
2023/01/13 02:17:20;;;;;;;25.02;3.53;;;8.70;99.90;;;;;;5053991;28;20045;-67
2023/01/13 02:19:58;;;;;;;21.35;3.83;;;8.80;99.90;;;;;;5053809;28;20640;-67
2023/01/13 02:22:42;;;;;;;19.98;3.78;;;8.70;99.90;;;;;;5053536;28;20052;-68
2023/01/13 02:25:35;;;;;;;25.80;4.18;;;8.60;99.90;;;;;;5052664;28;20041;-67
2023/01/13 02:28:20;;;;;;;;;;;8.60;99.90;;;;;;5054009;28;20068;-67
2023/01/13 02:34:09;;;;;;;24.48;4.00;;;8.60;99.90;;;;;;5052528;28;20134;-68
2023/01/13 02:36:50;;;;;;;16.02;3.35;;;8.60;99.90;;;;;;5053178;28;20654;-67
2023/01/13 02:39:33;;;;;;;24.17;4.32;;;8.50;99.90;;;;;;5053480;28;20440;-67
2023/01/13 02:44:54;;;;;;;14.50;3.30;;;8.50;99.90;;;;;;5040924;28;19929;-67
2023/01/13 02:47:24;;;;;;;18.42;4.72;;;8.50;99.90;;;;;;5053248;28;20037;-67
2023/01/13 02:50:00;;;;;;;13.57;3.85;;;8.50;99.90;;;;;;5053263;28;20052;-67
2023/01/13 02:52:32;;;;;;;18.10;3.28;;;8.50;99.90;;;;;;5052866;28;20474;-68
2023/01/13 02:55:09;;;;;;;22.70;4.13;;;8.30;99.90;;;;;;5052272;28;20037;-67
2023/01/13 02:57:36;;;;;;;28.27;5.28;;;8.40;99.90;;;;;;5052871;28;20044;-67
2023/01/13 03:00:06;;;;;;;25.98;4.00;;;8.40;99.90;;;;;;5052747;28;20045;-67
2023/01/13 03:02:32;;;;;;;20.17;2.88;;;8.40;99.90;;;;;;5050510;28;20055;-67
2023/01/13 03:04:59;;;;;;;17.63;3.78;;;8.40;99.90;;;;;;5052035;28;20132;-67
2023/01/13 03:07:40;;;;;;;30.67;4.85;;;8.40;99.90;;;;;;5052327;28;20045;-67
2023/01/13 03:10:40;;;;;;;26.70;4.72;;;8.30;99.90;;;;;;5052622;28;20036;-67
2023/01/13 03:13:15;;;;;;;23.75;4.43;;;8.40;99.90;;;;;;5051349;28;20111;-67
2023/01/13 03:16:05;;;;;;;26.15;4.07;;;8.30;99.90;;;;;;5051974;28;20041;-67
2023/01/13 03:18:39;;;;;;;21.83;4.07;;;8.30;99.90;;;;;;5052346;28;20497;-67
2023/01/13 03:21:25;;;;;;;16.40;3.45;;;8.30;99.90;;;;;;5052761;28;20052;-67
2023/01/13 03:24:02;;;;;;;21.80;3.53;;;8.40;99.90;;;;;;5051569;28;20041;-67
2023/01/13 03:26:54;;;;;;;18.08;3.25;;;8.40;99.90;;;;;;5052324;28;20399;-67
2023/01/13 03:29:25;;;;;;;20.00;3.22;;;8.40;99.90;;;;;;5052492;28;20041;-67
2023/01/13 03:32:23;;;;;;;21.15;3.80;;;8.40;99.90;;;;;;5052526;28;20107;-67
2023/01/13 03:35:29;;;;;;;18.95;3.22;;;8.40;99.90;;;;;;5047450;28;20053;-67
2023/01/13 03:38:02;;;;;;;27.63;4.25;;;8.40;99.90;;;;;;5036819;28;20085;-67
2023/01/13 03:40:34;;;;;;;25.73;4.53;;;8.50;99.90;;;;;;5052319;28;20119;-67
2023/01/13 03:45:54;;;;;;;28.50;5.47;;;8.40;99.90;;;;;;5051068;28;20053;-67
2023/01/13 03:48:23;;;;;;;22.52;4.05;;;8.40;99.90;;;;;;5052223;28;20051;-67
2023/01/13 03:50:51;;;;;;;13.55;3.35;;;8.50;99.90;;;;;;5051737;28;20543;-67
2023/01/13 03:53:24;;;;;;;32.03;5.00;;;8.40;99.90;;;;;;5051915;28;20041;-68
2023/01/13 03:55:58;;;;;;;22.20;4.00;;;8.40;99.90;;;;;;5051332;28;20041;-67
2023/01/13 03:58:29;;;;;;;28.02;4.95;;;8.50;99.90;;;;;;5051852;28;20041;-67
2023/01/13 04:01:09;;;;;;;23.50;4.75;;;8.50;99.90;;;;;;5051699;28;20535;-67
2023/01/13 04:03:41;;;;;;;19.65;5.03;;;8.40;99.90;;;;;;5051501;28;20048;-67
2023/01/13 04:06:31;;;;;;;21.67;3.60;;;8.50;99.90;;;;;;5049560;28;20537;-67
2023/01/13 04:09:04;;;;;;;27.15;5.25;;;8.50;99.90;;;;;;5050228;28;20094;-67
2023/01/13 04:11:40;;;;;;;20.15;4.03;;;8.40;99.90;;;;;;5051581;28;20115;-67
2023/01/13 04:14:09;;;;;;;22.35;3.63;;;8.40;99.90;;;;;;5050563;28;20079;-68
2023/01/13 04:16:35;;;;;;;24.40;3.58;;;8.40;99.90;;;;;;5051475;28;20130;-67
2023/01/13 04:19:01;;;;;;;19.30;3.58;;;8.40;99.90;;;;;;5051588;28;20049;-67
2023/01/13 04:21:28;;;;;;;23.88;3.92;;;8.40;99.90;;;;;;5051246;28;20063;-67
2023/01/13 04:23:53;;;;;;;32.58;4.20;;;8.40;99.90;;;;;;5050307;28;20559;-68
2023/01/13 04:26:19;;;;;;;16.52;3.28;;;8.40;99.90;;;;;;5051233;28;20049;-67
2023/01/13 04:28:45;;;;;;;23.70;3.63;;;8.40;99.90;;;;;;5051150;28;20094;-67
2023/01/13 04:31:11;;;;;;;23.95;4.40;;;8.40;99.90;;;;;;5051381;28;20072;-67
2023/01/13 04:33:36;;;;;;;27.15;6.18;;;8.40;99.90;;;;;;5051186;28;20036;-67
2023/01/13 04:36:02;;;;;;;31.30;4.88;;;8.40;99.90;;;;;;5050458;28;20417;-67
2023/01/13 04:38:28;;;;;;;21.50;3.25;;;8.40;99.90;;;;;;5051317;28;20048;-67
2023/01/13 04:40:53;;;;;;;18.50;3.65;;;8.40;99.90;;;;;;5050916;28;20124;-67
2023/01/13 04:43:19;;;;;;;22.75;3.95;;;8.40;99.90;;;;;;5050920;28;20041;-67
2023/01/13 04:45:44;;;;;;;27.50;3.83;;;8.50;99.90;;;;;;5050066;28;20090;-67
2023/01/13 04:48:10;;;;;;;18.30;3.05;;;8.40;99.90;;;;;;5051035;28;20115;-67
2023/01/13 04:50:36;;;;;;;31.17;4.20;;;8.40;99.90;;;;;;5050829;28;20041;-67
2023/01/13 04:53:02;;;;;;;23.77;3.33;;;8.30;99.90;;;;;;5051224;28;20032;-67
2023/01/13 04:55:27;;;;;;;28.55;4.50;;;8.30;99.90;;;;;;5050253;28;20120;-68
2023/01/13 04:57:53;;;;;;;32.08;4.75;;;8.30;99.90;;;;;;5050742;28;20048;-67
2023/01/13 05:00:21;;;;;;;22.85;4.55;;;8.40;99.90;;;;;;5049775;28;20040;-67
2023/01/13 05:02:49;;;;;;;22.67;3.63;;;8.30;99.90;;;;;;5051047;28;20120;-67
2023/01/13 05:05:15;;;;;;;25.63;4.90;;;8.30;99.90;;;;;;5050096;28;20041;-67
2023/01/13 05:07:41;;;;;;;20.75;3.38;;;8.30;99.90;;;;;;5050769;28;20397;-67
2023/01/13 05:10:07;;;;;;;16.52;3.10;;;8.30;99.90;;;;;;5050985;28;20071;-67
2023/01/13 05:18:02;;;;;;;32.90;3.90;;;8.30;99.90;;;;;;5053464;28;20049;-67
2023/01/13 05:20:27;;;;;;;23.58;4.03;;;8.30;99.90;;;;;;5054723;28;20033;-67
2023/01/13 05:25:40;;;;;;;33.50;4.72;;;8.30;99.90;;;;;;5053928;28;20052;-67
2023/01/13 05:28:06;;;;;;;17.60;4.00;;;8.30;99.90;;;;;;5054791;28;20064;-67
2023/01/13 05:30:36;;;;;;;16.92;3.40;;;8.30;99.90;;;;;;5054472;28;20037;-67
2023/01/13 05:33:02;;;;;;;22.65;3.67;;;8.30;99.90;;;;;;5054769;28;20076;-67
2023/01/13 05:35:28;;;;;;;19.05;3.20;;;8.30;99.90;;;;;;5053561;28;20673;-67
2023/01/13 05:37:54;;;;;;;20.45;3.88;;;8.30;99.90;;;;;;5054672;28;20041;-67
2023/01/13 05:43:19;;;;;;;17.17;3.22;;;8.30;99.90;;;;;;5054654;28;20131;-67
2023/01/13 05:45:49;;;;;;;19.40;3.45;;;8.20;99.90;;;;;;5053403;28;20375;-67
2023/01/13 05:48:16;;;;;;;19.40;3.70;;;8.20;99.90;;;;;;5052973;28;20098;-67
2023/01/13 05:50:41;;;;;;;16.38;3.95;;;8.20;99.90;;;;;;5054323;28;20435;-67
2023/01/13 05:53:07;;;;;;;23.25;4.05;;;8.20;99.90;;;;;;5053091;28;20125;-67
2023/01/13 05:55:33;;;;;;;21.13;3.60;;;8.20;99.90;;;;;;5053458;28;20044;-67
2023/01/13 05:57:59;;;;;;;29.73;4.50;;;8.20;99.90;;;;;;5054190;28;20045;-67
2023/01/13 06:00:24;;;;;;;16.08;3.35;;;8.20;99.90;;;;;;5054105;28;20043;-67
2023/01/13 06:02:50;;;;;;;13.10;2.85;;;8.20;99.90;;;;;;5054278;28;20041;-67
2023/01/13 06:05:16;;;;;;;17.35;2.80;;;8.20;99.90;;;;;;5053158;28;20040;-67
2023/01/13 06:07:42;;;;;;;19.25;3.28;;;8.20;99.90;;;;;;5053956;28;20048;-67
2023/01/13 06:10:08;;;;;;;20.20;3.05;;;8.20;99.90;;;;;;5053655;28;20048;-67
2023/01/13 06:12:33;;;;;;;15.60;3.03;;;8.20;99.90;;;;;;5053743;28;20049;-67
2023/01/13 06:14:59;;;;;;;13.60;3.63;;;8.20;99.90;;;;;;5052831;28;20092;-67
2023/01/13 06:17:25;;;;;;;14.45;2.55;;;8.20;99.90;;;;;;5053874;28;20037;-67
2023/01/13 06:19:50;;;;;;;10.05;2.33;;;8.20;99.90;;;;;;5053816;28;20048;-67
2023/01/13 06:22:20;;;;;;;15.93;3.55;;;8.20;99.90;;;;;;5053847;28;20048;-67
2023/01/13 06:24:47;;;;;;;15.45;3.08;;;8.20;99.90;;;;;;5052631;28;20509;-67
2023/01/13 06:27:14;;;;;;;12.77;2.50;;;8.20;99.90;;;;;;5053512;28;20029;-67
2023/01/13 06:29:40;;;;;;;11.13;2.38;;;8.20;99.90;;;;;;5052892;28;20040;-67
2023/01/13 06:32:13;;;;;;;7.68;2.10;;;8.20;99.90;;;;;;5053617;28;20086;-67
2023/01/13 06:34:40;;;;;;;19.20;2.83;;;8.20;99.90;;;;;;5052486;28;20041;-67
2023/01/13 06:37:06;;;;;;;15.65;2.78;;;8.20;99.90;;;;;;5053472;28;20080;-67
2023/01/13 06:39:34;;;;;;;7.25;2.40;;;8.20;99.90;;;;;;5053301;28;20072;-67
2023/01/13 06:44:45;;;;;;;12.13;2.80;;;8.20;99.90;;;;;;5052295;28;20454;-67
2023/01/13 06:47:11;;;;;;;11.88;2.08;;;8.20;99.90;;;;;;5053133;28;20041;-67
2023/01/13 06:49:37;;;;;;;8.50;2.10;;;8.30;99.90;;;;;;5053036;28;20456;-67
2023/01/13 06:52:02;;;;;;;16.13;2.65;;;8.20;99.90;;;;;;5053287;28;20520;-66
2023/01/13 06:54:28;;;;;;;13.55;2.67;;;8.20;99.90;;;;;;5052128;28;20045;-67
2023/01/13 06:56:53;;;;;;;11.18;2.45;;;8.30;99.90;;;;;;5051902;28;20406;-67
2023/01/13 06:59:19;;;;;;;11.40;2.10;;;8.30;99.90;;;;;;5052821;28;20037;-67
2023/01/13 07:01:44;;;;;;;9.95;2.50;;;8.30;99.90;;;;;;5052741;28;20041;-67
2023/01/13 07:04:10;;;;;;;11.10;2.47;;;8.20;99.90;;;;;;5052040;28;20036;-67
2023/01/13 07:06:36;;;;;;;13.57;2.63;;;8.30;99.90;;;;;;5052679;28;20037;-67
2023/01/13 07:09:01;;;;;;;11.95;2.30;;;8.30;99.90;;;;;;5052715;28;20073;-67
2023/01/13 07:11:27;;;;;;;9.45;1.77;;;8.30;99.90;;;;;;5052781;28;20052;-67
2023/01/13 07:16:36;;;;;;;11.77;2.28;;;8.30;99.90;;;;;;5052681;28;20452;-67
2023/01/13 07:19:02;;;;;;;8.25;2.35;;;8.30;99.90;;;;;;5052845;28;20029;-67
2023/01/13 07:21:28;;;;;;;19.42;3.15;;;8.30;99.90;;;;;;5052404;28;20052;-67
2023/01/13 07:23:53;;;;;;;14.38;2.28;;;8.30;99.90;;;;;;5051566;28;20421;-67
2023/01/13 07:26:19;;;;;;;9.60;2.67;;;8.30;99.90;;;;;;5052295;28;20410;-67
2023/01/13 07:28:44;;;;;;;9.30;2.08;;;8.30;99.90;;;;;;5052413;28;20033;-67
2023/01/13 07:31:19;;;;;;;17.05;2.42;;;8.30;99.90;;;;;;5052264;28;20033;-67
2023/01/13 07:33:45;;;;;;;9.90;2.15;;;8.30;99.90;;;;;;5047047;28;20045;-66
2023/01/13 07:36:11;;;;;;;7.35;2.03;;;8.30;99.90;;;;;;5040555;28;20406;-67
2023/01/13 07:38:38;;;;;;;14.35;2.30;;;8.30;99.90;;;;;;5052234;28;20045;-67
2023/01/13 07:43:50;;;;;;;14.48;2.50;;;8.30;99.90;;;;;;5051297;28;20045;-66
2023/01/13 07:46:17;;;;;;;9.48;2.00;;;8.30;99.90;;;;;;5052093;28;20073;-66
2023/01/13 07:48:42;;;;;;;13.73;2.40;;;8.30;99.90;;;;;;5051737;28;20037;-67
2023/01/13 07:51:10;;;;;;;11.57;2.25;;;8.30;99.90;;;;;;5047003;28;20037;-66
2023/01/13 07:53:38;;;;;;;8.50;2.03;;;8.30;99.90;;;;;;5042323;28;20595;-66
2023/01/13 07:56:06;;;;;;;9.05;2.22;;;8.30;99.90;;;;;;5046995;28;20033;-66
2023/01/13 07:58:32;;;;;;;12.80;2.72;;;8.20;99.90;;;;;;5049443;28;20041;-70
2023/01/13 08:01:12;;;;;;;7.18;2.53;;;8.30;99.90;;;;;;5107293;27;20458;-67
2023/01/13 08:03:39;;;;;;;14.00;2.95;;;8.30;99.90;;;;;;5105049;28;20050;-67
2023/01/13 08:06:06;;;;;;;9.60;3.33;;;8.30;99.90;;;;;;5104356;28;20036;-67
2023/01/13 08:08:31;;;;;;;9.77;2.50;;;8.30;99.90;;;;;;5106991;28;20043;-67
2023/01/13 08:10:59;;;;;;;16.08;3.22;;;8.20;99.90;;;;;;5104840;28;20056;-66
2023/01/13 08:13:25;;;;;;;8.85;2.42;;;8.20;99.90;;;;;;5102991;28;20050;-67
2023/01/13 08:15:53;;;;;;;12.40;3.35;;;8.20;99.90;;;;;;5107046;28;20122;-67
2023/01/13 08:18:21;;;;;;;11.07;2.42;;;8.20;99.90;;;;;;5108629;28;20039;-67
2023/01/13 08:20:51;;;;;;;16.05;2.90;;;8.20;99.90;;;;;;5108496;28;20392;-66
2023/01/13 08:23:17;;;;;;;13.20;3.88;;;8.20;99.90;;;;;;5108623;28;20090;-67
2023/01/13 08:25:43;;;;;;;17.60;2.80;;;8.20;99.90;;;;;;5107701;28;20089;-67
2023/01/13 08:28:09;;;;;;;14.38;2.88;;;8.10;99.90;;;;;;5108152;28;20488;-68
2023/01/13 08:30:35;;;;;;;18.00;2.58;;;8.20;99.90;;;;;;5108385;28;20051;-68
2023/01/13 08:33:01;;;;;;;18.25;2.53;;;8.10;99.90;;;;;;5108106;28;20036;-69
2023/01/13 08:35:26;;;;;;;18.95;2.75;;;8.10;99.90;;;;;;5107507;28;20040;-69
2023/01/13 08:37:52;;;;;;;13.38;2.53;;;8.10;99.90;;;;;;5108048;28;20126;-69
2023/01/13 08:40:19;;;;;;;10.02;2.80;;;8.00;99.90;;;;;;5089748;28;20067;-69
2023/01/13 08:42:45;;;;;;;11.85;2.50;;;8.00;99.90;;;;;;5107907;28;20048;-68
2023/01/13 08:45:12;;;;;;;18.00;3.00;;;8.00;99.90;;;;;;5107243;28;20051;-68
2023/01/13 08:47:38;;;;;;;20.95;2.33;;;8.00;99.90;;;;;;5108112;28;20032;-68
2023/01/13 08:50:05;;;;;;;13.63;2.47;;;8.00;99.90;;;;;;5105170;28;20543;-68
2023/01/13 08:52:30;;;;;;;19.80;2.83;;;8.00;99.90;;;;;;5096662;28;20032;-68
2023/01/13 08:54:56;;;;;;;17.98;2.90;;;8.00;99.90;;;;;;5096334;28;20039;-67
2023/01/13 08:57:21;;;;;;;14.80;2.92;;;8.10;99.90;;;;;;5096674;28;20035;-67
2023/01/13 08:59:47;;;;;;;19.63;2.67;;;8.00;99.90;;;;;;5096727;28;20039;-68
2023/01/13 09:02:14;;;;;;;14.13;2.40;;;8.00;99.90;;;;;;5095790;28;20119;-67
2023/01/13 09:04:40;;;;;;;18.48;2.72;;;8.00;99.90;;;;;;5096593;28;20029;-67
2023/01/13 09:07:06;;;;;;;15.32;2.78;;;8.00;99.90;;;;;;5095972;28;20059;-68
2023/01/13 09:09:31;;;;;;;14.38;3.58;;;8.00;99.90;;;;;;5087045;28;20036;-67
2023/01/13 09:14:41;;;;;;;12.20;2.80;;;8.00;99.90;;;;;;5072790;28;20123;-67
2023/01/13 09:17:07;;;;;;;16.65;2.67;;;7.90;99.90;;;;;;5073769;28;20071;-70
2023/01/13 09:19:32;;;;;;;13.63;2.78;;;8.00;99.90;;;;;;5055289;28;20037;-67
2023/01/13 09:21:58;;;;;;;18.40;2.88;;;8.00;99.90;;;;;;5073452;28;20047;-67
2023/01/13 09:24:24;;;;;;;16.75;3.50;;;8.00;99.90;;;;;;5074804;28;20033;-67
2023/01/13 09:26:50;;;;;;;16.75;3.00;;;8.00;99.90;;;;;;5090100;28;20032;-67
2023/01/13 09:29:16;;;;;;;12.20;2.95;;;8.00;99.90;;;;;;5093625;28;20039;-67
2023/01/13 09:31:42;;;;;;;10.80;2.72;;;8.00;99.90;;;;;;5093760;28;20046;-67
2023/01/13 09:36:58;;;;;;;6.55;3.00;;;8.00;99.90;;;;;;5093360;28;20504;-67
2023/01/13 09:39:23;;;;;;;15.25;2.58;;;8.00;99.90;;;;;;5075186;28;20577;-67
2023/01/13 09:44:57;;;;;;;12.35;3.15;;;8.00;99.90;;;;;;5092762;28;20048;-67
2023/01/13 09:47:56;;;;;;;8.60;2.75;;;8.10;99.90;;;;;;5093191;28;20036;-67
2023/01/13 09:50:25;;;;;;;14.82;3.20;;;8.10;99.90;;;;;;5093414;28;20044;-67
2023/01/13 09:52:51;;;;;;;22.17;3.10;;;8.10;99.90;;;;;;5074846;28;20127;-67
2023/01/13 09:55:37;;;;;;;12.95;2.60;;;8.20;99.90;;;;;;5092433;28;20052;-67
2023/01/13 09:58:12;;;;;;;15.55;3.33;;;8.20;99.90;;;;;;5092466;28;20542;-67
2023/01/13 10:00:59;;;;;;;13.20;3.42;;;8.20;99.90;;;;;;5092801;28;20079;-67
2023/01/13 10:03:30;;;;;;;16.08;2.60;;;8.20;99.90;;;;;;5092656;28;20048;-67
2023/01/13 10:05:58;;;;;;;16.15;2.60;;;8.20;99.90;;;;;;5092078;28;20089;-67
2023/01/13 10:08:31;;;;;;;15.55;2.60;;;8.30;99.90;;;;;;5092759;28;20129;-67
2023/01/13 10:13:12;;;;;;;23.90;2.92;;;8.20;99.90;;;;;;5093178;28;20451;-67
2023/01/13 10:13:49;;;;;;;15.15;3.17;;;8.20;99.90;;;;;;5091462;28;20048;-67
2023/01/13 10:16:27;;;;;;;13.13;2.85;;;8.20;99.90;;;;;;5074455;28;20040;-67
2023/01/13 10:19:09;;;;;;;13.70;3.00;;;8.30;99.90;;;;;;5075428;28;20468;-67
2023/01/13 10:21:38;;;;;;;15.88;2.70;;;8.20;99.90;;;;;;5072498;28;20460;-67
2023/01/13 10:24:22;;;;;;;13.63;3.85;;;8.20;99.90;;;;;;5073079;28;20044;-67
2023/01/13 10:27:06;;;;;;;14.05;3.08;;;8.20;99.90;;;;;;5072387;28;20032;-68
2023/01/13 10:29:34;;;;;;;15.73;2.45;;;8.20;99.90;;;;;;5054269;28;20043;-68
2023/01/13 10:32:00;;;;;;;13.80;2.20;;;8.10;99.90;;;;;;5072211;28;20524;-68
2023/01/13 10:34:28;;;;;;;25.45;3.72;;;8.20;99.90;;;;;;5070892;28;20040;-68
2023/01/13 10:36:59;;;;;;;12.00;3.25;;;8.20;99.90;;;;;;5072073;28;20413;-67
2023/01/13 10:39:26;;;;;;;21.85;4.18;;;8.20;99.90;;;;;;5071559;28;20041;-68
2023/01/13 10:42:02;;;;;;;19.33;2.80;;;8.20;99.90;;;;;;5071594;28;20044;-68
2023/01/13 10:44:28;;;;;;;17.83;2.97;;;8.20;99.90;;;;;;5081581;28;20046;-68
2023/01/13 10:46:56;;;;;;;13.52;2.95;;;8.20;99.90;;;;;;5079607;28;20119;-72
2023/01/13 10:49:35;;;;;;;17.98;3.58;;;8.10;99.90;;;;;;5072045;28;20039;-68
2023/01/13 10:52:01;;;;;;;24.65;3.60;;;8.20;99.90;;;;;;5071880;28;20062;-68
2023/01/13 10:54:28;;;;;;;12.98;2.70;;;8.20;99.90;;;;;;5070808;28;20036;-68
2023/01/13 10:57:14;;;;;;;9.75;2.38;;;8.20;99.90;;;;;;5071601;28;20048;-67
2023/01/13 10:59:40;;;;;;;19.55;2.85;;;8.20;99.90;;;;;;5071253;28;20120;-68
2023/01/13 11:02:15;;;;;;;21.17;2.83;;;8.20;99.90;;;;;;5071306;28;20120;-68
2023/01/13 11:04:52;;;;;;;14.80;3.35;;;8.20;99.90;;;;;;5070782;28;20058;-68
2023/01/13 11:07:28;;;;;;;12.65;2.70;;;8.20;99.90;;;;;;5086870;28;20033;-68
2023/01/13 11:10:20;;;;;;;15.70;3.30;;;8.20;99.90;;;;;;5071254;28;20080;-68
2023/01/13 11:12:58;;;;;;;11.52;2.95;;;8.20;99.90;;;;;;5053182;28;20055;-68
2023/01/13 11:15:54;;;;;;;19.17;3.15;;;8.30;99.90;;;;;;5070422;28;20055;-68
2023/01/13 11:18:30;;;;;;;21.80;4.05;;;8.30;99.90;;;;;;5071031;28;20043;-67
2023/01/13 11:20:58;;;;;;;16.35;2.78;;;8.30;99.90;;;;;;5071312;28;20424;-67
2023/01/13 11:23:40;;;;;;;18.42;3.15;;;8.30;99.90;;;;;;5077044;28;20036;-68
2023/01/13 11:26:22;;;;;;;15.82;2.75;;;8.30;99.90;;;;;;5089261;28;20040;-67
2023/01/13 11:29:22;;;;;;;16.60;3.28;;;8.30;99.90;;;;;;5072221;28;20036;-67
2023/01/13 11:31:53;;;;;;;15.10;2.58;;;8.30;99.90;;;;;;5072629;28;20069;-68
2023/01/13 11:34:35;;;;;;;18.08;3.72;;;8.30;99.90;;;;;;5089891;28;20032;-70
2023/01/13 11:37:08;;;;;;;23.70;3.47;;;8.30;99.90;;;;;;5072410;28;20096;-71
2023/01/13 11:40:04;;;;;;;16.25;3.60;;;8.50;99.90;;;;;;5072580;28;20044;-71
2023/01/13 11:42:47;;;;;;;13.65;2.72;;;8.40;99.90;;;;;;5073001;28;20040;-71
2023/01/13 11:45:36;;;;;;;20.38;3.00;;;8.40;99.90;;;;;;5071783;28;20040;-71
2023/01/13 11:48:03;;;;;;;16.92;3.13;;;8.40;99.90;;;;;;5072739;28;20055;-71
2023/01/13 11:50:49;;;;;;;20.70;4.13;;;8.40;99.90;;;;;;5072556;28;20143;-71
2023/01/13 11:53:34;;;;;;;12.50;2.70;;;8.40;99.90;;;;;;5072810;28;20044;-72
2023/01/13 11:56:31;;;;;;;17.30;3.00;;;8.30;99.90;;;;;;5060052;28;20155;-73
2023/01/13 11:59:12;;;;;;;14.63;2.70;;;8.30;99.90;;;;;;5062811;28;20097;-74
2023/01/13 12:02:14;;;;;;;16.20;3.50;;;8.30;99.90;;;;;;5063036;28;20043;-74
2023/01/13 12:04:48;;;;;;;20.57;3.47;;;8.40;99.90;;;;;;5061726;28;20067;-74
2023/01/13 12:07:18;;;;;;;18.05;3.22;;;8.30;99.90;;;;;;5062209;28;20787;-74
2023/01/13 12:10:05;;;;;;;18.38;3.05;;;8.30;99.90;;;;;;5061829;28;20040;-74
2023/01/13 12:12:47;;;;;;;14.52;3.92;;;8.30;99.90;;;;;;5046776;28;20106;-73
2023/01/13 12:15:43;;;;;;;16.23;4.15;;;8.30;99.90;;;;;;5062230;28;20071;-72
2023/01/13 12:18:35;;;;;;;9.23;2.83;;;8.30;99.90;;;;;;5052550;28;20098;-72
2023/01/13 12:21:19;;;;;;;15.45;4.25;;;8.40;99.90;;;;;;5069646;28;20044;-71
2023/01/13 12:24:24;;;;;;;17.52;2.97;;;8.30;99.90;;;;;;5072008;28;20048;-71
2023/01/13 12:27:25;;;;;;;14.30;2.67;;;8.40;99.90;;;;;;5072295;28;20036;-71
2023/01/13 12:29:55;;;;;;;7.32;2.08;;;8.40;99.90;;;;;;5050316;28;20109;-71
2023/01/13 12:32:33;;;;;;;16.17;2.67;;;8.40;99.90;;;;;;5072319;28;20131;-71
2023/01/13 12:35:27;;;;;;;16.48;2.50;;;8.40;99.90;;;;;;5071810;28;20052;-71
2023/01/13 12:38:04;;;;;;;15.07;2.47;;;8.40;99.90;;;;;;5072520;28;20055;-71
2023/01/13 12:40:38;;;;;;;11.68;2.75;;;8.50;99.90;;;;;;5072305;28;20040;-70
2023/01/13 12:45:51;;;;;;;17.27;2.97;;;8.50;99.90;;;;;;5071487;28;20048;-70
2023/01/13 12:48:45;;;;;;;18.02;2.97;;;8.40;99.90;;;;;;5075581;28;20040;-66
2023/01/13 12:51:21;;;;;;;21.52;2.83;;;8.50;99.90;;;;;;5093899;28;20451;-66
2023/01/13 12:53:47;;;;;;;14.35;3.03;;;8.50;99.90;;;;;;5092811;28;20123;-66
2023/01/13 12:56:28;;;;;;;13.75;3.70;;;8.50;99.90;;;;;;5093818;28;20115;-66
2023/01/13 12:59:15;;;;;;;8.65;2.40;;;8.50;99.90;;;;;;5093681;28;20048;-66
2023/01/13 13:01:42;;;;;;;8.57;2.95;;;8.50;99.90;;;;;;5093811;28;20079;-66
2023/01/13 13:04:13;;;;;;;9.30;2.22;;;8.50;99.90;;;;;;5092797;28;20038;-66
2023/01/13 13:06:49;;;;;;;13.03;2.10;;;8.40;99.90;;;;;;5058489;28;20047;-66
2023/01/13 13:09:31;;;;;;;10.55;2.63;;;8.50;99.90;;;;;;5075110;28;20047;-66
2023/01/13 13:14:40;;;;;;;10.60;2.47;;;8.50;99.90;;;;;;5092646;28;20044;-69
2023/01/13 13:17:18;;;;;;;15.57;2.40;;;8.60;99.90;;;;;;5058647;28;20102;-66
2023/01/13 13:19:46;;;;;;;18.17;2.58;;;8.60;99.90;;;;;;5088844;28;20036;-65
2023/01/13 13:22:12;;;;;;;19.83;3.50;;;8.50;99.90;;;;;;5093377;28;20044;-66
2023/01/13 13:25:01;;;;;;;13.02;2.30;;;8.60;99.90;;;;;;5091766;28;20032;-66
2023/01/13 13:27:39;;;;;;;11.77;2.30;;;8.50;99.90;;;;;;5074629;28;20069;-66
2023/01/13 13:30:13;;;;;;;6.05;2.45;;;8.50;99.90;;;;;;5070752;28;20046;-67
2023/01/13 13:32:42;;;;;;;8.10;2.40;;;8.60;99.90;;;;;;5093018;28;20202;-67
2023/01/13 13:35:34;;;;;;;10.48;2.38;;;8.60;99.90;;;;;;5092291;28;20044;-67
2023/01/13 13:47:06;;;;;;;11.57;2.13;;;8.60;99.90;;;;;;5081029;28;20044;-67
2023/01/13 13:49:43;;;;;;;13.00;2.65;;;8.60;99.90;;;;;;5081000;28;20029;-66
2023/01/13 13:52:28;;;;;;;12.25;2.15;;;8.60;99.90;;;;;;5063104;28;20059;-66
2023/01/13 13:54:57;;;;;;;14.88;3.58;;;8.60;99.90;;;;;;5080719;28;20051;-66
2023/01/13 13:57:33;;;;;;;8.98;2.65;;;8.60;99.90;;;;;;5081644;28;20032;-70
2023/01/13 13:59:59;;;;;;;10.07;2.08;;;8.50;99.90;;;;;;5081540;28;20082;-67
2023/01/13 14:02:31;;;;;;;9.80;2.10;;;8.60;99.90;;;;;;5080738;28;20641;-69
2023/01/13 14:05:27;;;;;;;12.73;2.53;;;8.60;99.90;;;;;;5064569;28;20432;-70
2023/01/13 14:08:13;;;;;;;8.38;2.80;;;8.70;99.90;;;;;;5053136;28;20327;-70